sensor_id;sensor_type;location;lat;lon;timestamp;temperature;humidity
11497;DHT22;5805;51.542;7.230;2023-06-22T00:00:05;23.90;98.70
11497;DHT22;5805;51.542;7.230;2023-06-22T00:02:31;23.90;98.70
11497;DHT22;5805;51.542;7.230;2023-06-22T00:04:57;23.90;98.80
11497;DHT22;5805;51.542;7.230;2023-06-22T00:07:23;23.90;98.90
11497;DHT22;5805;51.542;7.230;2023-06-22T00:09:50;23.90;99.10
11497;DHT22;5805;51.542;7.230;2023-06-22T00:12:15;23.90;99.30
11497;DHT22;5805;51.542;7.230;2023-06-22T00:14:41;23.80;99.70
11497;DHT22;5805;51.542;7.230;2023-06-22T00:17:07;23.80;99.70
11497;DHT22;5805;51.542;7.230;2023-06-22T00:19:33;23.80;99.90
11497;DHT22;5805;51.542;7.230;2023-06-22T00:21:58;23.80;99.90
11497;DHT22;5805;51.542;7.230;2023-06-22T00:24:24;23.80;99.90
11497;DHT22;5805;51.542;7.230;2023-06-22T00:26:51;23.80;99.90
11497;DHT22;5805;51.542;7.230;2023-06-22T00:29:17;23.70;99.90
11497;DHT22;5805;51.542;7.230;2023-06-22T00:31:42;23.70;99.90
11497;DHT22;5805;51.542;7.230;2023-06-22T00:34:08;23.70;99.90
11497;DHT22;5805;51.542;7.230;2023-06-22T00:36:34;23.70;99.90
11497;DHT22;5805;51.542;7.230;2023-06-22T00:39:00;23.70;99.90
11497;DHT22;5805;51.542;7.230;2023-06-22T00:41:26;23.70;99.90
11497;DHT22;5805;51.542;7.230;2023-06-22T00:43:53;23.70;99.90
11497;DHT22;5805;51.542;7.230;2023-06-22T00:46:19;23.80;99.90
11497;DHT22;5805;51.542;7.230;2023-06-22T00:48:45;23.70;99.90
11497;DHT22;5805;51.542;7.230;2023-06-22T00:51:11;23.70;99.90
11497;DHT22;5805;51.542;7.230;2023-06-22T00:53:37;23.70;99.90
11497;DHT22;5805;51.542;7.230;2023-06-22T00:56:03;23.70;99.90
11497;DHT22;5805;51.542;7.230;2023-06-22T00:58:30;23.70;99.90
11497;DHT22;5805;51.542;7.230;2023-06-22T01:00:57;23.60;99.90
11497;DHT22;5805;51.542;7.230;2023-06-22T01:03:22;23.60;99.90
11497;DHT22;5805;51.542;7.230;2023-06-22T01:05:49;23.60;99.90
11497;DHT22;5805;51.542;7.230;2023-06-22T01:08:29;23.70;99.90
11497;DHT22;5805;51.542;7.230;2023-06-22T01:11:01;23.70;99.90
11497;DHT22;5805;51.542;7.230;2023-06-22T01:13:35;23.70;99.90
11497;DHT22;5805;51.542;7.230;2023-06-22T01:16:07;23.70;99.90
11497;DHT22;5805;51.542;7.230;2023-06-22T01:18:36;23.60;99.90
11497;DHT22;5805;51.542;7.230;2023-06-22T01:21:02;23.60;99.90
11497;DHT22;5805;51.542;7.230;2023-06-22T01:23:36;23.70;99.90
11497;DHT22;5805;51.542;7.230;2023-06-22T01:26:12;23.70;99.90
11497;DHT22;5805;51.542;7.230;2023-06-22T01:28:47;23.70;99.90
11497;DHT22;5805;51.542;7.230;2023-06-22T01:31:16;23.60;99.90
11497;DHT22;5805;51.542;7.230;2023-06-22T01:33:45;23.60;99.90
11497;DHT22;5805;51.542;7.230;2023-06-22T01:36:13;23.50;99.90
11497;DHT22;5805;51.542;7.230;2023-06-22T01:38:40;23.50;99.90
11497;DHT22;5805;51.542;7.230;2023-06-22T01:41:07;23.40;99.90
11497;DHT22;5805;51.542;7.230;2023-06-22T01:43:33;23.40;99.90
11497;DHT22;5805;51.542;7.230;2023-06-22T01:46:02;23.40;99.90
11497;DHT22;5805;51.542;7.230;2023-06-22T01:48:28;23.30;99.90
11497;DHT22;5805;51.542;7.230;2023-06-22T01:50:54;23.30;99.90
11497;DHT22;5805;51.542;7.230;2023-06-22T01:53:21;23.30;99.90
11497;DHT22;5805;51.542;7.230;2023-06-22T01:55:46;23.30;99.90
11497;DHT22;5805;51.542;7.230;2023-06-22T01:58:12;23.30;99.90
11497;DHT22;5805;51.542;7.230;2023-06-22T02:00:41;23.20;99.90
11497;DHT22;5805;51.542;7.230;2023-06-22T02:03:14;23.20;99.90
11497;DHT22;5805;51.542;7.230;2023-06-22T02:05:46;23.20;99.90
11497;DHT22;5805;51.542;7.230;2023-06-22T02:08:16;23.20;99.90
11497;DHT22;5805;51.542;7.230;2023-06-22T02:10:44;23.20;99.90
11497;DHT22;5805;51.542;7.230;2023-06-22T02:13:11;23.10;99.90
11497;DHT22;5805;51.542;7.230;2023-06-22T02:15:38;23.10;99.90
11497;DHT22;5805;51.542;7.230;2023-06-22T02:18:04;23.10;99.90
11497;DHT22;5805;51.542;7.230;2023-06-22T02:20:32;23.10;99.90
11497;DHT22;5805;51.542;7.230;2023-06-22T02:22:57;23.10;99.90
11497;DHT22;5805;51.542;7.230;2023-06-22T02:25:23;20.20;99.90
11497;DHT22;5805;51.542;7.230;2023-06-22T02:27:49;23.10;99.90
11497;DHT22;5805;51.542;7.230;2023-06-22T02:30:15;23.20;99.90
11497;DHT22;5805;51.542;7.230;2023-06-22T02:32:40;23.20;99.90
11497;DHT22;5805;51.542;7.230;2023-06-22T02:35:07;23.20;99.90
11497;DHT22;5805;51.542;7.230;2023-06-22T02:37:35;23.20;99.90
11497;DHT22;5805;51.542;7.230;2023-06-22T02:40:01;23.20;99.90
11497;DHT22;5805;51.542;7.230;2023-06-22T02:42:27;23.20;99.90
11497;DHT22;5805;51.542;7.230;2023-06-22T02:44:52;23.20;99.90
11497;DHT22;5805;51.542;7.230;2023-06-22T02:47:18;23.20;99.90
11497;DHT22;5805;51.542;7.230;2023-06-22T02:49:44;23.20;99.90
11497;DHT22;5805;51.542;7.230;2023-06-22T02:52:09;23.20;99.90
11497;DHT22;5805;51.542;7.230;2023-06-22T02:54:36;23.20;99.90
11497;DHT22;5805;51.542;7.230;2023-06-22T02:57:03;23.20;99.90
11497;DHT22;5805;51.542;7.230;2023-06-22T02:59:28;23.30;99.90
11497;DHT22;5805;51.542;7.230;2023-06-22T03:01:54;23.20;99.90
11497;DHT22;5805;51.542;7.230;2023-06-22T03:04:20;23.10;99.90
11497;DHT22;5805;51.542;7.230;2023-06-22T03:06:45;23.10;99.90
11497;DHT22;5805;51.542;7.230;2023-06-22T03:09:11;23.00;99.90
11497;DHT22;5805;51.542;7.230;2023-06-22T03:11:38;23.00;99.90
11497;DHT22;5805;51.542;7.230;2023-06-22T03:14:04;22.80;99.90
11497;DHT22;5805;51.542;7.230;2023-06-22T03:16:29;22.70;99.90
11497;DHT22;5805;51.542;7.230;2023-06-22T03:18:55;22.80;99.90
11497;DHT22;5805;51.542;7.230;2023-06-22T03:21:22;22.80;99.90
11497;DHT22;5805;51.542;7.230;2023-06-22T03:23:48;22.70;99.90
11497;DHT22;5805;51.542;7.230;2023-06-22T03:26:16;22.60;99.90
11497;DHT22;5805;51.542;7.230;2023-06-22T03:28:43;22.40;99.90
11497;DHT22;5805;51.542;7.230;2023-06-22T03:31:09;22.20;99.90
11497;DHT22;5805;51.542;7.230;2023-06-22T03:33:35;22.20;99.90
11497;DHT22;5805;51.542;7.230;2023-06-22T03:36:01;22.20;99.90
11497;DHT22;5805;51.542;7.230;2023-06-22T03:38:26;22.10;99.90
11497;DHT22;5805;51.542;7.230;2023-06-22T03:40:52;22.20;99.90
11497;DHT22;5805;51.542;7.230;2023-06-22T03:43:18;22.30;99.90
11497;DHT22;5805;51.542;7.230;2023-06-22T03:45:45;22.40;99.90
11497;DHT22;5805;51.542;7.230;2023-06-22T03:48:11;22.40;99.90
11497;DHT22;5805;51.542;7.230;2023-06-22T03:50:36;22.40;99.90
11497;DHT22;5805;51.542;7.230;2023-06-22T03:53:02;22.50;99.90
11497;DHT22;5805;51.542;7.230;2023-06-22T03:55:28;22.40;99.90
11497;DHT22;5805;51.542;7.230;2023-06-22T03:57:54;22.30;99.90
11497;DHT22;5805;51.542;7.230;2023-06-22T04:00:19;22.40;99.90
11497;DHT22;5805;51.542;7.230;2023-06-22T04:02:46;22.50;99.90
11497;DHT22;5805;51.542;7.230;2023-06-22T04:05:12;22.50;99.90
11497;DHT22;5805;51.542;7.230;2023-06-22T04:07:38;22.60;99.90
11497;DHT22;5805;51.542;7.230;2023-06-22T04:10:04;22.50;99.90
11497;DHT22;5805;51.542;7.230;2023-06-22T04:12:29;22.30;99.90
11497;DHT22;5805;51.542;7.230;2023-06-22T04:14:55;22.30;99.90
11497;DHT22;5805;51.542;7.230;2023-06-22T04:17:21;22.20;99.90
11497;DHT22;5805;51.542;7.230;2023-06-22T04:19:48;22.20;99.90
11497;DHT22;5805;51.542;7.230;2023-06-22T04:22:14;22.30;99.90
11497;DHT22;5805;51.542;7.230;2023-06-22T04:24:39;22.40;99.90
11497;DHT22;5805;51.542;7.230;2023-06-22T04:27:05;22.40;99.90
11497;DHT22;5805;51.542;7.230;2023-06-22T04:29:31;22.40;99.90
11497;DHT22;5805;51.542;7.230;2023-06-22T04:31:57;22.40;99.90
11497;DHT22;5805;51.542;7.230;2023-06-22T04:34:23;22.50;99.90
11497;DHT22;5805;51.542;7.230;2023-06-22T04:36:52;22.60;99.90
11497;DHT22;5805;51.542;7.230;2023-06-22T04:39:19;22.60;99.90
11497;DHT22;5805;51.542;7.230;2023-06-22T04:41:45;22.60;99.90
11497;DHT22;5805;51.542;7.230;2023-06-22T04:44:11;22.40;99.90
11497;DHT22;5805;51.542;7.230;2023-06-22T04:46:37;22.40;99.90
11497;DHT22;5805;51.542;7.230;2023-06-22T04:49:03;22.30;99.90
11497;DHT22;5805;51.542;7.230;2023-06-22T04:51:29;22.20;99.90
11497;DHT22;5805;51.542;7.230;2023-06-22T04:53:56;22.10;99.90
11497;DHT22;5805;51.542;7.230;2023-06-22T04:56:21;22.10;99.90
11497;DHT22;5805;51.542;7.230;2023-06-22T04:58:47;22.20;99.90
11497;DHT22;5805;51.542;7.230;2023-06-22T05:01:13;22.20;99.90
11497;DHT22;5805;51.542;7.230;2023-06-22T05:03:38;22.20;99.90
11497;DHT22;5805;51.542;7.230;2023-06-22T05:06:04;22.00;99.90
11497;DHT22;5805;51.542;7.230;2023-06-22T05:08:30;22.20;99.90
11497;DHT22;5805;51.542;7.230;2023-06-22T05:10:57;22.30;99.90
11497;DHT22;5805;51.542;7.230;2023-06-22T05:13:23;22.40;99.90
11497;DHT22;5805;51.542;7.230;2023-06-22T05:15:48;22.40;99.90
11497;DHT22;5805;51.542;7.230;2023-06-22T05:18:14;22.50;99.90
11497;DHT22;5805;51.542;7.230;2023-06-22T05:20:40;22.60;99.90
11497;DHT22;5805;51.542;7.230;2023-06-22T05:23:05;22.70;99.90
11497;DHT22;5805;51.542;7.230;2023-06-22T05:25:31;22.70;99.90
11497;DHT22;5805;51.542;7.230;2023-06-22T05:27:58;22.80;99.90
11497;DHT22;5805;51.542;7.230;2023-06-22T05:30:24;22.90;99.90
11497;DHT22;5805;51.542;7.230;2023-06-22T05:32:49;22.90;99.90
11497;DHT22;5805;51.542;7.230;2023-06-22T05:35:15;22.90;99.90
11497;DHT22;5805;51.542;7.230;2023-06-22T05:37:41;23.00;99.90
11497;DHT22;5805;51.542;7.230;2023-06-22T05:40:09;23.10;99.90
11497;DHT22;5805;51.542;7.230;2023-06-22T05:42:34;23.10;99.90
11497;DHT22;5805;51.542;7.230;2023-06-22T05:45:02;23.20;99.90
11497;DHT22;5805;51.542;7.230;2023-06-22T05:47:27;23.20;99.90
11497;DHT22;5805;51.542;7.230;2023-06-22T05:49:53;23.20;99.90
11497;DHT22;5805;51.542;7.230;2023-06-22T05:52:19;23.20;99.90
11497;DHT22;5805;51.542;7.230;2023-06-22T05:54:44;23.20;99.90
11497;DHT22;5805;51.542;7.230;2023-06-22T05:57:10;23.20;99.90
11497;DHT22;5805;51.542;7.230;2023-06-22T05:59:36;23.20;99.90
11497;DHT22;5805;51.542;7.230;2023-06-22T06:02:04;23.10;99.90
11497;DHT22;5805;51.542;7.230;2023-06-22T06:04:29;23.10;99.90
11497;DHT22;5805;51.542;7.230;2023-06-22T06:06:55;23.10;99.90
11497;DHT22;5805;51.542;7.230;2023-06-22T06:09:21;23.20;99.90
11497;DHT22;5805;51.542;7.230;2023-06-22T06:11:46;23.20;99.90
11497;DHT22;5805;51.542;7.230;2023-06-22T06:14:12;23.30;99.90
11497;DHT22;5805;51.542;7.230;2023-06-22T06:16:38;23.30;99.90
11497;DHT22;5805;51.542;7.230;2023-06-22T06:19:05;23.40;99.90
11497;DHT22;5805;51.542;7.230;2023-06-22T06:21:30;23.40;99.90
11497;DHT22;5805;51.542;7.230;2023-06-22T06:23:56;23.40;99.90
11497;DHT22;5805;51.542;7.230;2023-06-22T06:26:22;23.20;99.90
11497;DHT22;5805;51.542;7.230;2023-06-22T06:28:47;23.00;99.90
11497;DHT22;5805;51.542;7.230;2023-06-22T06:31:13;23.10;99.90
11497;DHT22;5805;51.542;7.230;2023-06-22T06:33:39;23.10;99.90
11497;DHT22;5805;51.542;7.230;2023-06-22T06:36:06;23.00;99.90
11497;DHT22;5805;51.542;7.230;2023-06-22T06:38:32;23.10;99.90
11497;DHT22;5805;51.542;7.230;2023-06-22T06:40:58;23.20;99.90
11497;DHT22;5805;51.542;7.230;2023-06-22T06:43:23;23.20;99.90
11497;DHT22;5805;51.542;7.230;2023-06-22T06:45:49;23.30;99.90
11497;DHT22;5805;51.542;7.230;2023-06-22T06:48:15;23.20;99.90
11497;DHT22;5805;51.542;7.230;2023-06-22T06:50:40;23.30;99.90
11497;DHT22;5805;51.542;7.230;2023-06-22T06:53:08;23.40;99.90
11497;DHT22;5805;51.542;7.230;2023-06-22T06:55:33;23.30;99.90
11497;DHT22;5805;51.542;7.230;2023-06-22T06:57:59;23.20;99.90
11497;DHT22;5805;51.542;7.230;2023-06-22T07:00:25;23.20;99.90
11497;DHT22;5805;51.542;7.230;2023-06-22T07:02:50;23.00;99.90
11497;DHT22;5805;51.542;7.230;2023-06-22T07:05:16;23.00;99.90
11497;DHT22;5805;51.542;7.230;2023-06-22T07:07:42;23.20;99.90
11497;DHT22;5805;51.542;7.230;2023-06-22T07:10:09;23.20;99.90
11497;DHT22;5805;51.542;7.230;2023-06-22T07:12:35;23.30;99.90
11497;DHT22;5805;51.542;7.230;2023-06-22T07:15:03;23.20;99.90
11497;DHT22;5805;51.542;7.230;2023-06-22T07:17:29;23.30;99.90
11497;DHT22;5805;51.542;7.230;2023-06-22T07:19:54;23.50;99.90
11497;DHT22;5805;51.542;7.230;2023-06-22T07:22:20;23.60;99.90
11497;DHT22;5805;51.542;7.230;2023-06-22T07:24:46;23.40;99.90
11497;DHT22;5805;51.542;7.230;2023-06-22T07:27:13;23.40;99.90
11497;DHT22;5805;51.542;7.230;2023-06-22T07:29:39;23.40;99.90
11497;DHT22;5805;51.542;7.230;2023-06-22T07:32:05;23.50;99.90
11497;DHT22;5805;51.542;7.230;2023-06-22T07:34:31;23.60;99.90
11497;DHT22;5805;51.542;7.230;2023-06-22T07:36:56;23.70;99.90
11497;DHT22;5805;51.542;7.230;2023-06-22T07:39:22;23.70;99.90
11497;DHT22;5805;51.542;7.230;2023-06-22T07:41:48;23.90;99.90
11497;DHT22;5805;51.542;7.230;2023-06-22T07:44:15;24.00;99.90
11497;DHT22;5805;51.542;7.230;2023-06-22T07:46:40;24.00;99.90
11497;DHT22;5805;51.542;7.230;2023-06-22T07:49:06;24.00;99.90
11497;DHT22;5805;51.542;7.230;2023-06-22T07:51:32;24.10;99.90
11497;DHT22;5805;51.542;7.230;2023-06-22T07:53:57;24.30;99.90
11497;DHT22;5805;51.542;7.230;2023-06-22T07:56:23;24.20;99.90
11497;DHT22;5805;51.542;7.230;2023-06-22T07:58:49;24.60;99.90
11497;DHT22;5805;51.542;7.230;2023-06-22T08:01:16;25.60;99.90
11497;DHT22;5805;51.542;7.230;2023-06-22T08:03:42;27.00;99.90
11497;DHT22;5805;51.542;7.230;2023-06-22T08:06:07;27.80;99.90
11497;DHT22;5805;51.542;7.230;2023-06-22T08:08:33;28.20;99.90
11497;DHT22;5805;51.542;7.230;2023-06-22T08:10:59;28.30;98.80
11497;DHT22;5805;51.542;7.230;2023-06-22T08:13:25;28.10;98.00
11497;DHT22;5805;51.542;7.230;2023-06-22T08:15:50;27.60;97.90
11497;DHT22;5805;51.542;7.230;2023-06-22T08:18:17;27.30;99.90
11497;DHT22;5805;51.542;7.230;2023-06-22T08:20:43;27.40;99.90
11497;DHT22;5805;51.542;7.230;2023-06-22T08:23:09;27.30;99.90
11497;DHT22;5805;51.542;7.230;2023-06-22T08:25:35;27.00;99.90
11497;DHT22;5805;51.542;7.230;2023-06-22T08:28:01;26.20;99.90
11497;DHT22;5805;51.542;7.230;2023-06-22T08:30:26;25.70;99.90
11497;DHT22;5805;51.542;7.230;2023-06-22T08:32:52;25.40;99.90
11497;DHT22;5805;51.542;7.230;2023-06-22T08:35:19;25.30;99.90
11497;DHT22;5805;51.542;7.230;2023-06-22T08:37:45;25.30;99.90
11497;DHT22;5805;51.542;7.230;2023-06-22T08:40:11;25.10;99.90
11497;DHT22;5805;51.542;7.230;2023-06-22T08:42:37;25.20;99.90
11497;DHT22;5805;51.542;7.230;2023-06-22T08:45:04;25.30;99.90
11497;DHT22;5805;51.542;7.230;2023-06-22T08:47:30;25.70;99.90
11497;DHT22;5805;51.542;7.230;2023-06-22T08:49:55;26.30;99.90
11497;DHT22;5805;51.542;7.230;2023-06-22T08:52:23;26.70;99.90
11497;DHT22;5805;51.542;7.230;2023-06-22T08:54:49;27.00;99.90
11497;DHT22;5805;51.542;7.230;2023-06-22T08:57:15;27.20;99.90
11497;DHT22;5805;51.542;7.230;2023-06-22T08:59:41;27.20;99.90
11497;DHT22;5805;51.542;7.230;2023-06-22T09:02:07;27.30;99.90
11497;DHT22;5805;51.542;7.230;2023-06-22T09:04:32;27.20;99.90
11497;DHT22;5805;51.542;7.230;2023-06-22T09:06:58;27.00;99.90
11497;DHT22;5805;51.542;7.230;2023-06-22T09:09:25;26.60;99.90
11497;DHT22;5805;51.542;7.230;2023-06-22T09:11:51;26.60;99.90
11497;DHT22;5805;51.542;7.230;2023-06-22T09:14:17;26.60;99.90
11497;DHT22;5805;51.542;7.230;2023-06-22T09:16:42;26.90;99.90
11497;DHT22;5805;51.542;7.230;2023-06-22T09:19:08;27.10;99.90
11497;DHT22;5805;51.542;7.230;2023-06-22T09:21:34;27.10;99.90
11497;DHT22;5805;51.542;7.230;2023-06-22T09:24:00;27.10;99.90
11497;DHT22;5805;51.542;7.230;2023-06-22T09:26:27;27.20;99.90
11497;DHT22;5805;51.542;7.230;2023-06-22T09:28:53;27.20;99.90
11497;DHT22;5805;51.542;7.230;2023-06-22T09:31:18;27.30;99.90
11497;DHT22;5805;51.542;7.230;2023-06-22T09:33:44;27.60;99.90
11497;DHT22;5805;51.542;7.230;2023-06-22T09:36:10;27.50;99.90
11497;DHT22;5805;51.542;7.230;2023-06-22T09:38:36;27.20;99.90
11497;DHT22;5805;51.542;7.230;2023-06-22T09:41:02;27.10;99.90
11497;DHT22;5805;51.542;7.230;2023-06-22T09:43:31;27.30;99.90
11497;DHT22;5805;51.542;7.230;2023-06-22T09:45:57;27.00;99.90
11497;DHT22;5805;51.542;7.230;2023-06-22T09:48:23;27.00;99.90
11497;DHT22;5805;51.542;7.230;2023-06-22T09:50:49;27.20;99.90
11497;DHT22;5805;51.542;7.230;2023-06-22T09:53:14;27.50;99.90
11497;DHT22;5805;51.542;7.230;2023-06-22T09:55:40;28.10;99.90
11497;DHT22;5805;51.542;7.230;2023-06-22T09:58:06;28.30;99.80
11497;DHT22;5805;51.542;7.230;2023-06-22T10:00:33;27.90;99.90
11497;DHT22;5805;51.542;7.230;2023-06-22T10:02:58;28.10;99.90
11497;DHT22;5805;51.542;7.230;2023-06-22T10:05:24;28.40;99.90
11497;DHT22;5805;51.542;7.230;2023-06-22T10:07:50;28.10;98.90
11497;DHT22;5805;51.542;7.230;2023-06-22T10:10:16;27.80;99.90
11497;DHT22;5805;51.542;7.230;2023-06-22T10:12:45;27.70;99.90
11497;DHT22;5805;51.542;7.230;2023-06-22T10:15:10;27.80;99.90
11497;DHT22;5805;51.542;7.230;2023-06-22T10:17:38;27.90;99.90
11497;DHT22;5805;51.542;7.230;2023-06-22T10:20:04;28.30;99.90
11497;DHT22;5805;51.542;7.230;2023-06-22T10:22:30;28.50;99.00
11497;DHT22;5805;51.542;7.230;2023-06-22T10:24:56;28.70;98.60
11497;DHT22;5805;51.542;7.230;2023-06-22T10:27:22;28.80;98.10
11497;DHT22;5805;51.542;7.230;2023-06-22T10:29:47;28.60;97.50
11497;DHT22;5805;51.542;7.230;2023-06-22T10:32:13;28.60;98.00
11497;DHT22;5805;51.542;7.230;2023-06-22T10:34:40;28.70;98.20
11497;DHT22;5805;51.542;7.230;2023-06-22T10:37:06;28.80;96.40
11497;DHT22;5805;51.542;7.230;2023-06-22T10:39:32;28.90;96.20
11497;DHT22;5805;51.542;7.230;2023-06-22T10:41:57;28.80;96.10
11497;DHT22;5805;51.542;7.230;2023-06-22T10:44:23;29.00;95.70
11497;DHT22;5805;51.542;7.230;2023-06-22T10:46:49;28.80;95.90
11497;DHT22;5805;51.542;7.230;2023-06-22T10:49:14;29.10;96.20
11497;DHT22;5805;51.542;7.230;2023-06-22T10:51:41;29.30;95.10
11497;DHT22;5805;51.542;7.230;2023-06-22T10:54:07;29.40;94.50
11497;DHT22;5805;51.542;7.230;2023-06-22T10:56:33;29.50;94.60
11497;DHT22;5805;51.542;7.230;2023-06-22T10:58:58;29.40;94.00
11497;DHT22;5805;51.542;7.230;2023-06-22T11:01:24;29.30;94.90
11497;DHT22;5805;51.542;7.230;2023-06-22T11:03:50;29.40;95.30
11497;DHT22;5805;51.542;7.230;2023-06-22T11:06:15;29.30;95.10
11497;DHT22;5805;51.542;7.230;2023-06-22T11:08:45;29.10;95.00
11497;DHT22;5805;51.542;7.230;2023-06-22T11:11:10;29.00;95.70
11497;DHT22;5805;51.542;7.230;2023-06-22T11:13:36;28.70;96.70
11497;DHT22;5805;51.542;7.230;2023-06-22T11:16:02;28.50;97.30
11497;DHT22;5805;51.542;7.230;2023-06-22T11:18:28;28.20;98.30
11497;DHT22;5805;51.542;7.230;2023-06-22T11:20:53;28.10;99.20
11497;DHT22;5805;51.542;7.230;2023-06-22T11:23:19;28.00;99.70
11497;DHT22;5805;51.542;7.230;2023-06-22T11:25:46;27.70;99.90
11497;DHT22;5805;51.542;7.230;2023-06-22T11:28:12;27.50;99.90
11497;DHT22;5805;51.542;7.230;2023-06-22T11:30:37;27.40;99.90
11497;DHT22;5805;51.542;7.230;2023-06-22T11:33:03;27.40;99.90
11497;DHT22;5805;51.542;7.230;2023-06-22T11:35:29;27.30;99.90
11497;DHT22;5805;51.542;7.230;2023-06-22T11:37:54;27.30;99.90
11497;DHT22;5805;51.542;7.230;2023-06-22T11:40:20;27.30;99.90
11497;DHT22;5805;51.542;7.230;2023-06-22T11:42:47;27.30;99.90
11497;DHT22;5805;51.542;7.230;2023-06-22T11:45:13;27.20;99.90
11497;DHT22;5805;51.542;7.230;2023-06-22T11:47:39;26.90;99.90
11497;DHT22;5805;51.542;7.230;2023-06-22T11:50:06;26.80;99.90
11497;DHT22;5805;51.542;7.230;2023-06-22T11:52:32;26.70;99.90
11497;DHT22;5805;51.542;7.230;2023-06-22T11:54:58;26.50;99.90
11497;DHT22;5805;51.542;7.230;2023-06-22T11:57:24;26.40;99.90
11497;DHT22;5805;51.542;7.230;2023-06-22T11:59:51;26.30;99.90
11497;DHT22;5805;51.542;7.230;2023-06-22T12:02:17;26.20;99.90
11497;DHT22;5805;51.542;7.230;2023-06-22T12:04:42;26.20;99.90
11497;DHT22;5805;51.542;7.230;2023-06-22T12:07:08;26.20;99.90
11497;DHT22;5805;51.542;7.230;2023-06-22T12:09:34;26.10;99.90
11497;DHT22;5805;51.542;7.230;2023-06-22T12:11:59;26.00;99.90
11497;DHT22;5805;51.542;7.230;2023-06-22T12:14:25;25.90;99.90
11497;DHT22;5805;51.542;7.230;2023-06-22T12:16:52;25.80;99.90
11497;DHT22;5805;51.542;7.230;2023-06-22T12:19:18;25.80;99.90
11497;DHT22;5805;51.542;7.230;2023-06-22T12:21:43;25.60;99.90
11497;DHT22;5805;51.542;7.230;2023-06-22T12:24:09;25.10;99.90
11497;DHT22;5805;51.542;7.230;2023-06-22T12:26:35;25.10;99.90
11497;DHT22;5805;51.542;7.230;2023-06-22T12:29:00;25.00;99.90
11497;DHT22;5805;51.542;7.230;2023-06-22T12:31:26;25.10;99.90
11497;DHT22;5805;51.542;7.230;2023-06-22T12:33:53;25.40;99.90
11497;DHT22;5805;51.542;7.230;2023-06-22T12:36:19;25.40;99.90
11497;DHT22;5805;51.542;7.230;2023-06-22T12:38:45;25.30;99.90
11497;DHT22;5805;51.542;7.230;2023-06-22T12:41:10;25.20;99.90
11497;DHT22;5805;51.542;7.230;2023-06-22T12:43:36;25.10;99.90
11497;DHT22;5805;51.542;7.230;2023-06-22T12:46:02;25.00;99.90
11497;DHT22;5805;51.542;7.230;2023-06-22T12:48:27;24.80;99.90
11497;DHT22;5805;51.542;7.230;2023-06-22T12:50:54;24.80;99.90
11497;DHT22;5805;51.542;7.230;2023-06-22T12:53:20;24.80;99.90
11497;DHT22;5805;51.542;7.230;2023-06-22T12:55:46;24.60;99.90
11497;DHT22;5805;51.542;7.230;2023-06-22T12:58:11;24.60;99.90
11497;DHT22;5805;51.542;7.230;2023-06-22T13:00:38;24.50;99.90
11497;DHT22;5805;51.542;7.230;2023-06-22T13:03:04;24.60;99.90
11497;DHT22;5805;51.542;7.230;2023-06-22T13:05:29;24.80;99.90
11497;DHT22;5805;51.542;7.230;2023-06-22T13:07:56;24.80;99.90
11497;DHT22;5805;51.542;7.230;2023-06-22T13:10:22;24.80;99.90
11497;DHT22;5805;51.542;7.230;2023-06-22T13:12:48;24.80;99.90
11497;DHT22;5805;51.542;7.230;2023-06-22T13:15:14;24.70;99.90
11497;DHT22;5805;51.542;7.230;2023-06-22T13:17:39;24.80;99.90
11497;DHT22;5805;51.542;7.230;2023-06-22T13:20:06;24.80;99.90
11497;DHT22;5805;51.542;7.230;2023-06-22T13:22:33;24.90;99.90
11497;DHT22;5805;51.542;7.230;2023-06-22T13:25:01;25.00;99.90
11497;DHT22;5805;51.542;7.230;2023-06-22T13:27:26;25.00;99.90
11497;DHT22;5805;51.542;7.230;2023-06-22T13:29:52;25.00;99.90
11497;DHT22;5805;51.542;7.230;2023-06-22T13:32:18;25.20;99.90
11497;DHT22;5805;51.542;7.230;2023-06-22T13:34:44;25.30;99.90
11497;DHT22;5805;51.542;7.230;2023-06-22T13:37:09;25.40;99.90
11497;DHT22;5805;51.542;7.230;2023-06-22T13:39:35;25.50;99.90
11497;DHT22;5805;51.542;7.230;2023-06-22T13:42:02;25.50;99.90
11497;DHT22;5805;51.542;7.230;2023-06-22T13:44:28;25.40;99.90
11497;DHT22;5805;51.542;7.230;2023-06-22T13:46:54;25.50;99.90
11497;DHT22;5805;51.542;7.230;2023-06-22T13:49:20;25.40;99.90
11497;DHT22;5805;51.542;7.230;2023-06-22T13:51:45;25.30;99.90
11497;DHT22;5805;51.542;7.230;2023-06-22T13:54:11;24.90;99.90
11497;DHT22;5805;51.542;7.230;2023-06-22T13:56:37;24.90;99.90
11497;DHT22;5805;51.542;7.230;2023-06-22T13:59:04;25.10;99.90
11497;DHT22;5805;51.542;7.230;2023-06-22T14:01:29;25.20;99.90
11497;DHT22;5805;51.542;7.230;2023-06-22T14:03:55;25.20;99.90
11497;DHT22;5805;51.542;7.230;2023-06-22T14:06:21;25.00;99.90
11497;DHT22;5805;51.542;7.230;2023-06-22T14:08:46;25.00;99.90
11497;DHT22;5805;51.542;7.230;2023-06-22T14:11:12;25.10;99.90
11497;DHT22;5805;51.542;7.230;2023-06-22T14:13:38;25.20;99.90
11497;DHT22;5805;51.542;7.230;2023-06-22T14:16:05;25.20;99.90
11497;DHT22;5805;51.542;7.230;2023-06-22T14:18:31;25.30;99.90
11497;DHT22;5805;51.542;7.230;2023-06-22T14:20:56;25.40;99.90
11497;DHT22;5805;51.542;7.230;2023-06-22T14:23:22;25.40;99.90
11497;DHT22;5805;51.542;7.230;2023-06-22T14:25:48;25.40;99.90
11497;DHT22;5805;51.542;7.230;2023-06-22T14:28:13;25.30;99.90
11497;DHT22;5805;51.542;7.230;2023-06-22T14:30:39;25.40;99.90
11497;DHT22;5805;51.542;7.230;2023-06-22T14:33:06;25.50;99.90
11497;DHT22;5805;51.542;7.230;2023-06-22T14:35:32;25.30;99.90
11497;DHT22;5805;51.542;7.230;2023-06-22T14:37:58;25.20;99.90
11497;DHT22;5805;51.542;7.230;2023-06-22T14:40:23;25.10;99.90
11497;DHT22;5805;51.542;7.230;2023-06-22T14:42:49;25.20;99.90
11497;DHT22;5805;51.542;7.230;2023-06-22T14:45:15;25.10;99.90
11497;DHT22;5805;51.542;7.230;2023-06-22T14:47:40;25.20;99.90
11497;DHT22;5805;51.542;7.230;2023-06-22T14:50:08;25.30;99.90
11497;DHT22;5805;51.542;7.230;2023-06-22T14:52:34;25.30;99.90
11497;DHT22;5805;51.542;7.230;2023-06-22T14:54:59;25.20;99.90
11497;DHT22;5805;51.542;7.230;2023-06-22T14:57:25;25.00;99.90
11497;DHT22;5805;51.542;7.230;2023-06-22T14:59:51;25.00;99.90
11497;DHT22;5805;51.542;7.230;2023-06-22T15:02:16;25.00;99.90
11497;DHT22;5805;51.542;7.230;2023-06-22T15:04:42;24.80;99.90
11497;DHT22;5805;51.542;7.230;2023-06-22T15:07:09;24.50;99.90
11497;DHT22;5805;51.542;7.230;2023-06-22T15:09:35;24.50;99.90
11497;DHT22;5805;51.542;7.230;2023-06-22T15:12:01;24.40;99.90
11497;DHT22;5805;51.542;7.230;2023-06-22T15:14:26;24.40;99.90
11497;DHT22;5805;51.542;7.230;2023-06-22T15:16:52;24.30;99.90
11497;DHT22;5805;51.542;7.230;2023-06-22T15:19:18;24.30;99.90
11497;DHT22;5805;51.542;7.230;2023-06-22T15:21:44;24.30;99.90
11497;DHT22;5805;51.542;7.230;2023-06-22T15:24:11;24.40;99.90
11497;DHT22;5805;51.542;7.230;2023-06-22T15:26:37;24.40;99.90
11497;DHT22;5805;51.542;7.230;2023-06-22T15:29:02;24.30;99.90
11497;DHT22;5805;51.542;7.230;2023-06-22T15:31:29;24.30;99.90
11497;DHT22;5805;51.542;7.230;2023-06-22T15:33:54;24.20;99.90
11497;DHT22;5805;51.542;7.230;2023-06-22T15:36:20;24.00;99.90